createdAt,value
2023-05-16T00:00:02.083Z,11.0518
2023-05-16T00:01:04.668Z,11.0607
2023-05-16T00:02:07.430Z,11.1157
2023-05-16T00:03:09.956Z,11.0742
2023-05-16T00:04:12.603Z,11.1769
2023-05-16T00:05:15.069Z,11.0950
2023-05-16T00:06:17.701Z,11.0005
2023-05-16T00:07:20.280Z,11.0658
2023-05-16T00:08:22.966Z,11.0658
2023-05-16T00:09:25.487Z,11.0477
2023-05-16T00:10:28.668Z,11.1001
2023-05-16T00:11:30.705Z,11.1256
2023-05-16T00:12:33.319Z,11.0459
2023-05-16T00:15:15.030Z,11.0943
2023-05-16T00:16:17.646Z,11.0126
2023-05-16T00:17:20.237Z,11.0323
2023-05-16T00:18:22.838Z,11.1595
2023-05-16T00:19:25.422Z,11.2061
2023-05-16T00:20:28.498Z,11.2328
2023-05-16T00:21:30.714Z,11.2147
2023-05-16T00:22:33.257Z,11.2211
2023-05-16T00:23:35.839Z,11.2644
2023-05-16T00:24:38.465Z,11.2014
2023-05-16T00:25:41.085Z,11.1509
2023-05-16T00:26:43.692Z,11.1728
2023-05-16T00:27:46.272Z,11.0744
2023-05-16T00:28:48.904Z,11.0594
2023-05-16T00:29:51.474Z,11.0767
2023-05-16T00:30:54.108Z,11.0305
2023-05-16T00:31:56.730Z,11.0262
2023-05-16T00:32:59.358Z,10.9502
2023-05-16T00:34:01.959Z,10.9789
2023-05-16T00:35:04.541Z,10.9830
2023-05-16T00:36:07.112Z,10.9693
2023-05-16T00:37:09.740Z,10.9541
2023-05-16T00:38:12.319Z,10.9409
2023-05-16T00:39:14.947Z,10.9374
2023-05-16T00:40:17.530Z,11.0463
2023-05-16T00:41:20.152Z,10.9849
2023-05-16T00:42:22.757Z,11.0734
2023-05-16T00:43:25.368Z,11.0245
2023-05-16T00:44:27.962Z,11.0239
2023-05-16T00:45:30.764Z,11.0605
2023-05-16T00:46:33.195Z,11.1198
2023-05-16T00:47:35.800Z,11.0344
2023-05-16T00:48:38.359Z,10.9843
2023-05-16T00:49:40.982Z,11.0143
2023-05-16T00:50:43.577Z,11.0206
2023-05-16T00:51:46.203Z,10.9678
2023-05-16T00:52:48.772Z,11.0143
2023-05-16T00:53:51.651Z,11.0851
2023-05-16T00:54:53.987Z,11.1143
2023-05-16T00:55:56.605Z,11.0652
2023-05-16T00:56:59.201Z,11.0800
2023-05-16T00:58:01.820Z,11.0506
2023-05-16T00:59:04.395Z,11.0130
2023-05-16T01:00:07.053Z,11.1153
2023-05-16T01:01:09.660Z,11.0403
2023-05-16T01:02:12.286Z,11.0660
2023-05-16T01:03:14.944Z,11.0438
2023-05-16T01:04:17.451Z,11.0025
2023-05-16T01:05:20.033Z,11.0734
2023-05-16T01:06:22.675Z,11.1241
2023-05-16T01:07:25.276Z,11.1673
2023-05-16T01:08:27.871Z,11.1453
2023-05-16T01:09:30.448Z,11.2199
2023-05-16T01:10:33.133Z,11.2833
2023-05-16T01:11:35.653Z,11.1112
2023-05-16T01:12:38.280Z,11.0196
2023-05-16T01:13:40.887Z,10.9335
2023-05-16T01:14:43.489Z,10.9430
2023-05-16T01:17:01.115Z,10.8633
2023-05-16T01:18:03.738Z,10.8349
2023-05-16T01:19:06.424Z,10.8998
2023-05-16T01:20:08.922Z,10.8148
2023-05-16T01:21:11.554Z,10.7879
2023-05-16T01:22:14.142Z,10.9134
2023-05-16T01:23:16.768Z,10.9528
2023-05-16T01:24:19.348Z,10.9861
2023-05-16T01:25:21.992Z,11.0225
2023-05-16T01:26:24.583Z,11.0173
2023-05-16T01:27:27.184Z,11.1176
2023-05-16T01:28:29.779Z,11.1231
2023-05-16T01:29:32.410Z,11.0391
2023-05-16T01:30:34.982Z,10.8982
2023-05-16T01:31:37.670Z,10.8612
2023-05-16T01:32:40.258Z,10.9670
2023-05-16T01:33:42.824Z,11.0391
2023-05-16T01:34:45.401Z,10.9584
2023-05-16T01:35:48.048Z,10.9206
2023-05-16T01:36:50.633Z,10.9808
2023-05-16T01:37:53.253Z,11.0886
2023-05-16T01:38:55.827Z,11.0477
2023-05-16T01:41:32.719Z,10.8242
2023-05-16T01:42:35.347Z,10.7910
2023-05-16T01:43:37.940Z,10.8103
2023-05-16T01:44:40.571Z,10.8929
2023-05-16T01:45:43.154Z,10.8600
2023-05-16T01:48:15.292Z,10.9993
2023-05-16T01:49:17.844Z,11.0451
2023-05-16T01:50:20.561Z,11.0075
2023-05-16T01:51:23.051Z,11.0128
2023-05-16T01:52:25.776Z,11.0346
2023-05-16T01:53:28.272Z,11.0477
2023-05-16T01:54:30.907Z,10.9795
2023-05-16T01:55:33.505Z,10.9797
2023-05-16T01:56:36.158Z,10.9966
2023-05-16T01:57:38.696Z,11.0693
2023-05-16T02:00:05.988Z,11.2261
2023-05-16T02:01:08.682Z,11.2505
2023-05-16T02:02:11.188Z,11.1810
2023-05-16T02:03:13.874Z,11.1854
2023-05-16T02:06:09.961Z,11.3027
2023-05-16T02:07:12.537Z,11.2875
2023-05-16T02:08:15.165Z,11.1336
2023-05-16T02:09:17.750Z,10.9954
2023-05-16T02:10:20.389Z,11.1003
2023-05-16T02:11:22.973Z,11.0979
2023-05-16T02:12:25.607Z,11.1880
2023-05-16T02:13:28.185Z,11.0882
2023-05-16T02:14:30.835Z,11.0377
2023-05-16T02:15:33.411Z,10.9426
2023-05-16T02:16:36.061Z,10.9767
2023-05-16T02:17:38.647Z,10.8783
2023-05-16T02:18:41.327Z,10.8171
2023-05-16T02:19:43.851Z,10.8321
2023-05-16T02:20:46.482Z,10.7932
2023-05-16T02:21:49.067Z,10.7877
2023-05-16T02:22:51.697Z,10.8115
2023-05-16T02:23:54.274Z,10.8922
2023-05-16T02:24:56.926Z,10.9321
2023-05-16T02:27:14.537Z,11.0203
2023-05-16T02:28:17.129Z,10.9884
2023-05-16T02:29:19.757Z,11.0529
2023-05-16T02:30:22.331Z,11.0677
2023-05-16T02:31:25.068Z,11.0529
2023-05-16T02:32:27.551Z,10.9261
2023-05-16T02:33:30.187Z,10.9259
2023-05-16T02:34:32.796Z,10.9140
2023-05-16T02:35:35.399Z,10.9374
2023-05-16T02:36:37.990Z,11.0508
2023-05-16T02:37:40.604Z,11.0258
2023-05-16T02:38:43.200Z,11.0853
2023-05-16T02:39:45.829Z,11.0724
2023-05-16T02:40:48.426Z,11.0796
2023-05-16T02:41:51.008Z,10.9960
2023-05-16T02:42:53.634Z,11.0991
2023-05-16T02:43:56.223Z,11.1597
2023-05-16T02:44:58.844Z,11.1693
2023-05-16T02:46:01.455Z,11.1408
2023-05-16T02:47:04.063Z,11.0894
2023-05-16T02:48:06.737Z,11.1317
2023-05-16T02:49:09.328Z,11.1628
2023-05-16T02:50:11.970Z,11.0668
2023-05-16T02:51:14.482Z,11.1157
2023-05-16T02:52:17.062Z,11.0023
2023-05-16T02:53:19.697Z,10.9785
2023-05-16T02:54:22.267Z,10.9711
2023-05-16T02:55:24.907Z,10.9218
2023-05-16T02:56:27.480Z,11.0613
2023-05-16T02:57:30.115Z,10.9335
2023-05-16T02:58:32.695Z,10.9422
2023-05-16T02:59:35.324Z,10.9783
2023-05-16T03:00:37.928Z,11.0937
2023-05-16T03:01:40.574Z,11.0097
2023-05-16T03:02:43.179Z,10.9270
2023-05-16T03:03:45.852Z,10.9582
2023-05-16T03:04:48.348Z,10.9311
2023-05-16T03:05:51.131Z,10.9337
2023-05-16T03:06:53.542Z,11.0204
2023-05-16T03:07:56.190Z,10.9300
2023-05-16T03:08:58.765Z,10.8471
2023-05-16T03:10:01.413Z,10.8212
2023-05-16T03:11:04.020Z,10.9187
2023-05-16T03:12:07.195Z,10.9980
2023-05-16T03:13:09.206Z,10.8998
2023-05-16T03:14:11.823Z,10.8238
2023-05-16T03:15:14.405Z,10.7848
2023-05-16T03:16:17.121Z,10.9214
2023-05-16T03:17:19.646Z,10.9450
2023-05-16T03:18:22.249Z,10.9937
2023-05-16T03:19:24.902Z,10.9754
2023-05-16T03:20:27.469Z,11.0352
2023-05-16T03:21:30.216Z,10.9917
2023-05-16T03:22:32.670Z,10.9243
2023-05-16T03:23:35.262Z,10.8760
2023-05-16T03:24:37.994Z,10.8450
2023-05-16T03:25:40.463Z,10.8581
2023-05-16T03:26:43.087Z,10.8310
2023-05-16T03:27:45.669Z,10.9042
2023-05-16T03:28:48.302Z,10.8269
2023-05-16T03:29:50.892Z,10.7856
2023-05-16T03:30:53.510Z,10.8275
2023-05-16T03:31:56.138Z,10.9265
2023-05-16T03:32:58.756Z,10.9732
2023-05-16T03:34:01.303Z,11.0640
2023-05-16T03:35:03.932Z,11.1057
2023-05-16T03:37:11.979Z,11.0153
2023-05-16T03:38:14.623Z,11.1396
2023-05-16T03:39:17.201Z,11.1490
2023-05-16T03:40:19.839Z,11.0095
2023-05-16T03:41:22.418Z,11.0009
2023-05-16T03:42:25.048Z,10.9625
2023-05-16T03:43:27.625Z,10.8080
2023-05-16T03:44:30.267Z,10.9397
2023-05-16T03:45:32.995Z,11.0163
2023-05-16T03:46:35.485Z,11.0303
2023-05-16T03:47:38.088Z,10.8343
2023-05-16T03:48:40.691Z,10.7092
2023-05-16T03:49:43.273Z,10.8150
2023-05-16T03:50:45.934Z,10.7004
2023-05-16T03:51:48.486Z,10.7113
2023-05-16T03:52:51.124Z,10.6725
2023-05-16T03:53:53.710Z,10.6342
2023-05-16T03:54:56.357Z,10.6959
2023-05-16T03:55:59.050Z,10.7772
2023-05-16T03:57:01.548Z,10.7100
2023-05-16T03:58:04.148Z,10.7663
2023-05-16T03:59:06.765Z,10.7435
2023-05-16T04:00:09.379Z,10.6651
2023-05-16T04:01:11.982Z,10.6078
2023-05-16T04:02:15.447Z,10.6776
2023-05-16T04:03:17.215Z,10.7694
2023-05-16T04:04:19.960Z,10.8269
2023-05-16T04:05:22.452Z,10.8442
2023-05-16T04:06:25.021Z,10.8974
2023-05-16T04:07:27.641Z,10.8033
2023-05-16T04:08:30.208Z,10.8093
2023-05-16T04:09:32.855Z,10.7359
2023-05-16T04:10:35.435Z,10.6193
2023-05-16T04:11:38.057Z,10.5396
2023-05-16T04:12:40.664Z,10.4720
2023-05-16T04:13:43.343Z,10.4056
2023-05-16T04:14:45.855Z,10.4044
2023-05-16T04:15:48.490Z,10.4091
2023-05-16T04:18:30.237Z,10.4894
2023-05-16T04:19:32.792Z,10.5235
2023-05-16T04:20:35.431Z,10.5073
2023-05-16T04:22:48.265Z,10.6022
2023-05-16T04:23:50.826Z,10.5147
2023-05-16T04:24:53.487Z,10.4956
2023-05-16T04:25:56.053Z,10.4707
2023-05-16T04:28:52.231Z,10.4683
2023-05-16T04:29:54.863Z,10.4173
2023-05-16T04:30:57.449Z,10.4136
2023-05-16T04:32:00.242Z,10.4081
2023-05-16T04:33:02.706Z,10.4459
2023-05-16T04:34:05.309Z,10.4771
2023-05-16T04:35:07.893Z,10.5905
2023-05-16T04:36:10.523Z,10.7012
2023-05-16T04:37:13.116Z,10.6581
2023-05-16T04:38:15.748Z,10.6755
2023-05-16T04:39:18.328Z,10.7102
2023-05-16T04:40:20.988Z,10.6743
2023-05-16T04:41:23.550Z,10.7316
2023-05-16T04:42:26.188Z,10.6961
2023-05-16T04:43:28.779Z,10.6176
2023-05-16T04:44:31.407Z,10.5940
2023-05-16T04:45:35.897Z,10.6038
2023-05-16T04:46:36.668Z,10.6248
2023-05-16T04:47:39.273Z,10.7499
2023-05-16T04:48:41.826Z,10.6770
2023-05-16T04:49:44.417Z,10.7478
2023-05-16T04:50:47.168Z,10.7608
2023-05-16T04:51:49.622Z,10.7464
2023-05-16T04:52:53.544Z,10.8247
2023-05-16T04:53:54.859Z,10.9128
2023-05-16T04:54:57.439Z,10.8290
2023-05-16T04:56:00.098Z,10.8888
2023-05-16T04:57:02.658Z,10.8536
2023-05-16T04:58:05.312Z,10.8922
2023-05-16T04:59:07.867Z,11.0054
2023-05-16T05:00:10.487Z,10.9220
2023-05-16T05:01:13.120Z,10.9093
2023-05-16T05:02:15.809Z,10.9726
2023-05-16T05:03:18.378Z,10.9876
2023-05-16T05:04:20.921Z,10.8760
2023-05-16T05:05:23.737Z,10.8785
2023-05-16T05:06:26.143Z,10.9459
2023-05-16T05:07:28.942Z,10.9843
2023-05-16T05:08:31.343Z,11.0666
2023-05-16T05:09:33.926Z,11.0165
2023-05-16T05:10:36.542Z,11.0740
2023-05-16T05:11:39.133Z,11.1361
2023-05-16T05:12:41.773Z,11.1934
2023-05-16T05:13:44.350Z,11.1597
2023-05-16T05:14:46.960Z,11.2404
2023-05-16T05:15:49.542Z,11.2429
2023-05-16T05:16:52.201Z,11.2061
2023-05-16T05:17:54.867Z,11.2289
2023-05-16T05:18:57.484Z,11.1901
2023-05-16T05:20:02.447Z,11.2092
2023-05-16T05:21:02.587Z,11.3193
2023-05-16T05:22:05.163Z,11.3733
2023-05-16T05:24:22.782Z,11.2255
2023-05-16T05:25:25.524Z,11.2145
2023-05-16T05:26:27.983Z,11.3140
2023-05-16T05:27:30.584Z,11.2577
2023-05-16T05:28:33.206Z,11.2708
2023-05-16T05:29:35.772Z,11.2809
2023-05-16T05:30:38.855Z,11.3109
2023-05-16T05:31:41.027Z,11.2955
2023-05-16T05:32:43.663Z,11.1800
2023-05-16T05:33:46.207Z,11.1566
2023-05-16T05:34:48.838Z,11.2180
2023-05-16T05:35:51.435Z,11.2414
2023-05-16T05:36:54.046Z,11.2254
2023-05-16T05:37:56.638Z,11.1983
2023-05-16T05:38:59.272Z,11.0972
2023-05-16T05:40:01.857Z,11.1194
2023-05-16T05:41:04.474Z,11.1889
2023-05-16T05:42:07.062Z,11.2147
2023-05-16T05:43:09.678Z,11.1806
2023-05-16T05:44:12.270Z,11.2084
2023-05-16T05:45:14.903Z,11.1993
2023-05-16T05:46:17.604Z,11.2472
2023-05-16T05:47:20.178Z,11.2753
2023-05-16T05:48:22.668Z,11.3569
2023-05-16T05:49:25.298Z,11.3795
2023-05-16T05:50:27.885Z,11.4152
2023-05-16T05:51:30.513Z,11.3142
2023-05-16T05:52:33.185Z,11.2872
2023-05-16T05:53:35.722Z,11.3117
2023-05-16T05:54:38.291Z,11.3452
2023-05-16T05:55:40.977Z,11.3984
2023-05-16T05:56:43.502Z,11.4791
2023-05-16T05:57:46.147Z,11.5062
2023-05-16T05:58:48.736Z,11.5329
2023-05-16T05:59:51.343Z,11.5691
2023-05-16T06:00:53.922Z,11.5666
2023-05-16T06:01:56.551Z,11.4955
2023-05-16T06:02:59.328Z,11.4976
2023-05-16T06:04:02.263Z,11.6134
2023-05-16T06:05:04.340Z,11.6868
2023-05-16T06:06:06.970Z,11.5719
2023-05-16T06:07:09.517Z,11.5687
2023-05-16T06:08:12.151Z,11.6652
2023-05-16T06:09:14.745Z,11.6619
2023-05-16T06:10:17.319Z,11.7484
2023-05-16T06:11:19.947Z,11.7482
2023-05-16T06:12:22.522Z,11.7806
2023-05-16T06:13:25.143Z,11.7576
2023-05-16T06:14:27.719Z,11.7449
2023-05-16T06:15:30.341Z,11.6796
2023-05-16T06:16:32.937Z,11.6989
2023-05-16T06:17:35.579Z,11.7237
2023-05-16T06:18:38.170Z,11.7215
2023-05-16T06:19:40.763Z,11.6759
2023-05-16T06:20:43.346Z,11.7463
2023-05-16T06:21:45.962Z,11.8453
2023-05-16T06:22:48.543Z,11.9197
2023-05-16T06:23:51.177Z,11.8517
2023-05-16T06:24:53.748Z,11.8560
2023-05-16T06:25:56.380Z,11.8499
2023-05-16T06:26:58.950Z,11.8749
2023-05-16T06:28:01.912Z,11.8620
2023-05-16T06:29:04.155Z,11.9281
2023-05-16T06:30:06.782Z,11.9273
2023-05-16T06:31:09.396Z,11.8347
2023-05-16T06:32:13.539Z,11.9275
2023-05-16T06:33:14.580Z,11.9191
2023-05-16T06:34:17.200Z,11.9281
2023-05-16T06:35:19.792Z,11.8357
2023-05-16T06:36:22.437Z,11.8355
2023-05-16T06:37:25.005Z,11.7685
2023-05-16T06:38:27.634Z,11.7950
2023-05-16T06:39:30.217Z,11.7675
2023-05-16T06:40:32.831Z,11.7712
2023-05-16T06:41:35.428Z,11.8996
2023-05-16T06:42:38.035Z,11.8353
2023-05-16T06:43:40.615Z,11.7367
2023-05-16T06:44:43.263Z,11.7948
2023-05-16T06:45:45.838Z,11.8577
2023-05-16T06:46:48.772Z,11.9113
2023-05-16T06:47:51.066Z,11.8833
2023-05-16T06:48:53.655Z,11.8495
2023-05-16T06:49:56.235Z,11.9466
2023-05-16T06:50:58.858Z,11.8542
2023-05-16T06:52:01.450Z,11.8423
2023-05-16T06:54:33.477Z,11.8542
2023-05-16T06:55:36.102Z,11.9002
2023-05-16T06:56:38.681Z,11.8160
2023-05-16T06:57:41.318Z,11.7730
2023-05-16T06:58:43.906Z,11.7878
2023-05-16T06:59:46.533Z,11.8377
2023-05-16T07:00:49.228Z,11.8227
2023-05-16T07:01:51.882Z,11.8112
2023-05-16T07:04:52.673Z,11.7954
2023-05-16T07:05:55.298Z,11.8540
2023-05-16T07:06:57.909Z,11.8517
2023-05-16T07:08:00.519Z,11.8476
2023-05-16T07:09:03.105Z,11.9059
2023-05-16T07:10:05.722Z,11.9328
2023-05-16T07:11:08.316Z,11.8938
2023-05-16T07:12:10.929Z,11.9281
2023-05-16T07:14:28.618Z,11.8633
2023-05-16T07:15:31.164Z,11.8583
2023-05-16T07:16:33.766Z,11.8690
2023-05-16T07:17:36.347Z,11.9057
2023-05-16T07:18:39.013Z,11.8059
2023-05-16T07:19:41.556Z,11.7850
2023-05-16T07:20:44.194Z,11.7087
2023-05-16T07:21:46.767Z,11.7613
2023-05-16T07:22:49.429Z,11.6999
2023-05-16T07:23:51.994Z,11.6952
2023-05-16T07:24:54.632Z,11.6471
2023-05-16T07:25:57.243Z,11.6457
2023-05-16T07:26:59.843Z,11.6145
2023-05-16T07:28:02.426Z,11.5695
2023-05-16T07:29:05.065Z,11.5761
2023-05-16T07:30:07.680Z,11.5652
2023-05-16T07:31:10.291Z,11.5313
2023-05-16T07:32:12.926Z,11.5341
2023-05-16T07:33:15.522Z,11.5374
2023-05-16T07:34:18.081Z,11.5270
2023-05-16T07:35:20.716Z,11.5159
2023-05-16T07:36:23.308Z,11.5270
2023-05-16T07:37:25.946Z,11.4651
2023-05-16T07:38:28.564Z,11.4834
2023-05-16T07:39:31.142Z,11.4799
2023-05-16T07:40:33.766Z,11.4902
2023-05-16T07:41:36.388Z,11.5091
2023-05-16T07:42:38.994Z,11.5200
2023-05-16T07:43:41.612Z,11.4970
2023-05-16T07:44:44.252Z,11.4873
2023-05-16T07:45:46.850Z,11.4602
2023-05-16T07:46:49.441Z,11.4664
2023-05-16T07:47:52.074Z,11.4863
2023-05-16T07:48:54.654Z,11.4795
2023-05-16T07:49:57.236Z,11.4499
2023-05-16T07:50:59.878Z,11.4637
2023-05-16T07:52:02.457Z,11.4600
2023-05-16T07:53:05.085Z,11.4300
2023-05-16T07:54:07.686Z,11.4255
2023-05-16T07:55:10.331Z,11.4109
2023-05-16T07:57:32.727Z,11.3762
2023-05-16T07:58:35.358Z,11.3939
2023-05-16T07:59:38.063Z,11.3739
2023-05-16T08:00:40.595Z,11.4068
2023-05-16T08:01:43.189Z,11.4251
2023-05-16T08:02:45.938Z,11.4327
2023-05-16T08:03:48.467Z,11.4111
2023-05-16T08:04:51.030Z,11.4674
2023-05-16T08:05:53.628Z,11.4510
2023-05-16T08:06:56.265Z,11.4608
2023-05-16T08:07:58.832Z,11.4826
2023-05-16T08:09:01.466Z,11.4935
2023-05-16T08:10:04.055Z,11.5479
2023-05-16T08:11:06.698Z,11.5576
2023-05-16T08:12:09.263Z,11.5779
2023-05-16T08:13:11.910Z,11.5820
2023-05-16T08:14:14.489Z,11.6231
2023-05-16T08:15:17.073Z,11.5921
2023-05-16T08:16:19.739Z,11.5758
2023-05-16T08:17:22.309Z,11.5715
2023-05-16T08:18:24.942Z,11.6568
2023-05-16T08:19:27.535Z,11.6948
2023-05-16T08:20:30.141Z,11.6781
2023-05-16T08:21:32.709Z,11.7720
2023-05-16T08:22:35.327Z,11.7644
2023-05-16T08:23:37.916Z,11.8250
2023-05-16T08:24:40.539Z,11.7917
2023-05-16T08:25:43.129Z,11.8638
2023-05-16T08:26:45.761Z,11.8649
2023-05-16T08:27:48.336Z,11.8158
2023-05-16T08:28:50.957Z,11.7913
2023-05-16T08:31:32.662Z,11.7130
2023-05-16T08:32:35.238Z,11.6447
2023-05-16T08:33:37.869Z,11.5756
2023-05-16T08:34:40.664Z,11.6631
2023-05-16T08:37:12.460Z,11.6848
2023-05-16T08:38:15.102Z,11.7903
2023-05-16T08:39:17.676Z,11.7274
2023-05-16T08:40:20.259Z,11.7350
2023-05-16T08:41:22.910Z,11.7276
2023-05-16T08:42:25.487Z,11.7135
2023-05-16T08:43:28.142Z,11.7200
2023-05-16T08:44:30.772Z,11.7246
2023-05-16T08:45:33.839Z,11.7546
2023-05-16T08:46:35.978Z,11.7548
2023-05-16T08:47:38.575Z,11.7291
2023-05-16T08:48:41.129Z,11.7309
2023-05-16T08:49:43.770Z,11.7330
2023-05-16T08:52:44.668Z,11.7905
2023-05-16T08:53:47.311Z,11.7989
2023-05-16T08:55:02.015Z,11.8238
2023-05-16T08:55:52.529Z,11.8626
2023-05-16T08:56:55.110Z,11.8821
2023-05-16T08:57:57.767Z,11.9113
2023-05-16T08:59:00.326Z,11.9008
2023-05-16T09:00:02.988Z,11.8994
2023-05-16T09:01:05.605Z,11.9014
2023-05-16T09:02:08.176Z,11.9754
2023-05-16T09:03:10.787Z,11.9252
2023-05-16T09:04:13.444Z,11.9427
2023-05-16T09:05:15.981Z,11.9027
2023-05-16T09:06:18.613Z,11.8778
2023-05-16T09:07:21.195Z,11.8466
2023-05-16T09:08:23.827Z,11.8519
2023-05-16T09:09:26.420Z,11.8562
2023-05-16T09:10:29.062Z,11.8215
2023-05-16T09:11:31.640Z,11.8176
2023-05-16T09:12:34.269Z,11.7708
2023-05-16T09:13:36.890Z,11.7718
2023-05-16T09:14:39.499Z,11.8312
2023-05-16T09:15:42.078Z,11.8020
2023-05-16T09:16:44.736Z,11.8115
2023-05-16T09:17:47.545Z,11.7776
2023-05-16T09:18:50.002Z,11.8106
2023-05-16T09:19:52.521Z,11.7722
2023-05-16T09:20:55.143Z,11.7550
2023-05-16T09:21:57.727Z,11.7603
2023-05-16T09:23:00.387Z,11.7377
2023-05-16T09:24:02.954Z,11.7256
2023-05-16T09:25:06.928Z,11.7558
2023-05-16T09:26:08.902Z,11.7387
2023-05-16T09:27:10.804Z,11.7463
2023-05-16T09:28:13.395Z,11.7893
2023-05-16T09:29:16.031Z,11.7687
2023-05-16T09:30:18.618Z,11.8020
2023-05-16T09:31:21.355Z,11.7969
2023-05-16T09:32:23.939Z,11.8445
2023-05-16T09:33:26.467Z,11.8877
2023-05-16T09:34:29.034Z,11.8916
2023-05-16T09:35:43.912Z,11.9255
2023-05-16T09:36:34.265Z,11.9098
2023-05-16T09:37:36.889Z,11.9326
2023-05-16T09:38:39.465Z,12.0123
2023-05-16T09:39:42.100Z,12.0703
2023-05-16T09:40:44.667Z,12.0935
2023-05-16T09:41:47.322Z,12.1724
2023-05-16T09:42:49.904Z,12.1428
2023-05-16T09:43:52.507Z,12.1473
2023-05-16T09:44:55.093Z,12.0836
2023-05-16T09:45:57.746Z,12.1113
2023-05-16T09:47:00.375Z,12.0409
2023-05-16T09:48:03.008Z,12.0452
2023-05-16T09:49:05.512Z,12.0269
2023-05-16T09:50:08.157Z,12.0113
2023-05-16T09:51:10.739Z,12.0004
2023-05-16T09:52:13.354Z,11.9294
2023-05-16T09:53:16.129Z,11.9002
2023-05-16T09:54:18.581Z,11.9144
2023-05-16T09:55:21.160Z,11.8778
2023-05-16T09:56:23.873Z,11.9176
2023-05-16T09:57:26.371Z,11.9242
2023-05-16T09:58:29.012Z,11.8864
2023-05-16T09:59:31.584Z,11.8875
2023-05-16T10:00:34.224Z,11.8973
2023-05-16T10:01:36.911Z,11.9004
2023-05-16T10:02:39.502Z,11.8626
2023-05-16T10:03:42.157Z,11.8897
2023-05-16T10:04:44.661Z,11.8714
2023-05-16T10:05:47.250Z,11.8870
2023-05-16T10:06:49.982Z,11.8712
2023-05-16T10:07:52.469Z,11.8934
2023-05-16T10:08:55.101Z,11.8410
2023-05-16T10:09:57.704Z,11.8336
2023-05-16T10:11:00.322Z,11.8293
2023-05-16T10:12:02.910Z,11.8412
2023-05-16T10:13:05.544Z,11.8367
2023-05-16T10:15:13.518Z,11.8391
2023-05-16T10:16:16.140Z,11.8421
2023-05-16T10:17:18.751Z,11.8743
2023-05-16T10:18:21.359Z,11.8918
2023-05-16T10:19:24.084Z,11.8905
2023-05-16T10:20:26.548Z,11.9166
2023-05-16T10:21:29.183Z,11.9027
2023-05-16T10:22:31.772Z,11.9168
2023-05-16T10:23:34.407Z,11.9271
2023-05-16T10:24:37.000Z,11.9608
2023-05-16T10:25:39.614Z,12.0438
2023-05-16T10:26:42.217Z,12.0017
2023-05-16T10:27:44.857Z,12.0306
2023-05-16T10:28:47.422Z,12.0803
2023-05-16T10:29:54.858Z,12.0711
2023-05-16T10:30:52.626Z,12.1284
2023-05-16T10:31:55.270Z,12.1298
2023-05-16T10:32:57.874Z,12.1980
2023-05-16T10:34:00.586Z,12.2691
2023-05-16T10:35:03.054Z,12.2843
2023-05-16T10:36:05.790Z,12.2315
2023-05-16T10:37:08.257Z,12.1469
2023-05-16T10:38:10.896Z,12.1744
2023-05-16T10:39:13.468Z,12.1937
2023-05-16T10:40:16.168Z,12.2358
2023-05-16T10:41:18.911Z,12.2387
2023-05-16T10:42:21.331Z,12.2110
2023-05-16T10:43:23.907Z,12.3079
2023-05-16T10:44:26.545Z,12.3133
2023-05-16T10:45:29.466Z,12.3617
2023-05-16T10:46:31.886Z,12.3831
2023-05-16T10:47:34.349Z,12.4427
2023-05-16T10:50:20.931Z,12.4990
2023-05-16T10:51:23.411Z,12.5507
2023-05-16T10:52:25.988Z,12.5302
2023-05-16T10:53:28.632Z,12.5528
2023-05-16T10:54:33.453Z,12.6142
2023-05-16T10:55:33.837Z,12.6423
2023-05-16T10:56:36.454Z,12.7118
2023-05-16T10:57:39.064Z,12.4926
2023-05-16T10:58:41.667Z,12.5244
2023-05-16T10:59:44.296Z,12.5107
2023-05-16T11:00:46.888Z,12.5916
2023-05-16T11:01:49.602Z,12.6232
2023-05-16T11:02:52.155Z,12.5840
2023-05-16T11:03:54.794Z,12.6142
2023-05-16T11:04:57.300Z,12.6469
2023-05-16T11:05:59.958Z,12.7222
2023-05-16T11:07:02.528Z,12.6787
2023-05-16T11:08:05.213Z,12.7516
2023-05-16T11:09:07.756Z,12.8566
2023-05-16T11:10:10.364Z,12.8857
2023-05-16T11:11:12.947Z,12.9346
2023-05-16T11:12:15.578Z,12.9457
2023-05-16T11:13:18.307Z,13.0184
2023-05-16T11:14:21.046Z,13.0464
2023-05-16T11:15:23.522Z,13.1456
2023-05-16T11:16:26.073Z,13.2417
2023-05-16T11:17:28.663Z,13.3161
2023-05-16T11:18:31.322Z,13.2060
2023-05-16T11:19:33.811Z,13.0920
2023-05-16T11:20:36.439Z,13.1945
2023-05-16T11:21:39.150Z,13.2214
2023-05-16T11:22:41.651Z,13.2050
2023-05-16T11:23:44.204Z,13.1177
2023-05-16T11:24:46.838Z,13.0766
2023-05-16T11:25:49.419Z,13.0852
2023-05-16T11:26:52.048Z,13.1242
2023-05-16T11:27:54.620Z,13.0546
2023-05-16T11:28:57.266Z,12.9502
2023-05-16T11:30:02.033Z,12.8944
2023-05-16T11:31:02.514Z,12.8416
2023-05-16T11:32:05.228Z,12.9139
2023-05-16T11:33:08.024Z,12.8307
2023-05-16T11:34:10.295Z,12.7919
2023-05-16T11:35:14.682Z,12.8284
2023-05-16T11:36:16.531Z,12.8406
2023-05-16T11:37:18.230Z,12.8847
2023-05-16T11:38:20.842Z,12.8124
2023-05-16T11:39:23.401Z,12.7465
2023-05-16T11:40:25.938Z,12.6883
2023-05-16T11:41:28.572Z,12.5904
2023-05-16T11:44:29.475Z,12.5652
2023-05-16T11:45:32.125Z,12.5427
2023-05-16T11:46:34.741Z,12.5018
2023-05-16T11:47:37.399Z,12.4642
2023-05-16T11:48:39.960Z,12.5861
2023-05-16T11:49:42.550Z,12.6259
2023-05-16T11:50:45.137Z,12.6742
2023-05-16T11:51:47.779Z,12.5244
2023-05-16T11:52:50.536Z,12.4067
2023-05-16T11:53:53.010Z,12.3595
2023-05-16T11:54:55.586Z,12.2777
2023-05-16T11:55:58.551Z,12.2722
2023-05-16T11:57:01.136Z,12.1890
2023-05-16T11:58:03.458Z,12.1853
2023-05-16T11:59:06.046Z,12.1713
2023-05-16T12:00:08.699Z,12.1960
2023-05-16T12:01:11.263Z,12.0464
2023-05-16T12:02:13.898Z,11.9932
2023-05-16T12:03:16.593Z,11.9503
2023-05-16T12:04:19.299Z,12.0006
2023-05-16T12:05:21.733Z,11.8462
2023-05-16T12:06:24.340Z,11.8531
2023-05-16T12:07:26.921Z,11.7829
2023-05-16T12:08:29.586Z,11.7893
2023-05-16T12:09:32.141Z,11.7375
2023-05-16T12:10:35.201Z,11.7276
2023-05-16T12:11:37.369Z,11.7071
2023-05-16T12:12:40.020Z,11.7344
2023-05-16T12:13:42.633Z,11.7882
2023-05-16T12:14:45.233Z,11.7870
2023-05-16T12:15:47.802Z,11.7295
2023-05-16T12:16:50.494Z,11.7350
2023-05-16T12:17:53.106Z,11.7344
2023-05-16T12:18:55.677Z,11.7258
2023-05-16T12:19:58.254Z,11.6138
2023-05-16T12:21:00.886Z,11.6233
2023-05-16T12:22:03.470Z,11.6079
2023-05-16T12:23:06.118Z,11.5962
2023-05-16T12:24:08.721Z,11.6375
2023-05-16T12:25:11.313Z,11.6771
2023-05-16T12:26:13.896Z,11.6664
2023-05-16T12:27:16.545Z,11.6543
2023-05-16T12:28:19.399Z,11.5954
2023-05-16T12:29:21.750Z,11.6102
2023-05-16T12:30:24.331Z,11.6233
2023-05-16T12:31:31.080Z,11.6599
2023-05-16T12:32:29.741Z,11.6617
2023-05-16T12:33:32.223Z,11.7377
2023-05-16T12:34:34.773Z,11.7248
2023-05-16T12:35:37.399Z,11.7776
2023-05-16T12:36:39.997Z,11.8143
2023-05-16T12:37:42.621Z,11.9037
2023-05-16T12:38:46.864Z,11.8550
2023-05-16T12:39:47.862Z,11.8975
2023-05-16T12:40:50.417Z,12.0226
2023-05-16T12:41:53.052Z,12.0329
2023-05-16T12:42:55.634Z,12.0594
2023-05-16T12:43:58.540Z,12.0364
2023-05-16T12:45:00.863Z,12.1091
2023-05-16T12:46:03.502Z,12.0750
2023-05-16T12:47:06.083Z,12.0972
2023-05-16T12:48:08.768Z,12.1428
2023-05-16T12:49:11.282Z,12.2108
2023-05-16T12:50:13.933Z,12.2874
2023-05-16T12:51:16.541Z,12.2194
2023-05-16T12:52:19.131Z,12.0801
2023-05-16T12:53:21.715Z,12.1354
2023-05-16T12:54:24.341Z,12.1048
2023-05-16T12:55:26.943Z,12.0799
2023-05-16T12:56:29.555Z,12.0859
2023-05-16T12:57:34.392Z,12.0978
2023-05-16T12:58:34.817Z,12.0150
2023-05-16T12:59:37.372Z,12.0690
2023-05-16T13:00:39.988Z,12.0803
2023-05-16T13:01:42.587Z,12.1007
2023-05-16T13:02:45.275Z,12.0236
2023-05-16T13:03:47.952Z,11.9390
2023-05-16T13:04:50.416Z,12.0017
2023-05-16T13:05:53.000Z,11.8881
2023-05-16T13:06:59.581Z,11.9682
2023-05-16T13:07:58.231Z,11.9834
2023-05-16T13:09:00.862Z,12.0304
2023-05-16T13:10:03.421Z,12.0380